createdAt,value
2023-03-15T00:01:21.375Z,66.43
2023-03-15T00:03:48.711Z,66.30
2023-03-15T00:06:16.556Z,66.26
2023-03-15T00:08:47.851Z,66.36
2023-03-15T00:11:19.169Z,66.40
2023-03-15T00:13:46.743Z,66.41
2023-03-15T00:16:17.876Z,66.43
2023-03-15T00:18:47.436Z,66.39
2023-03-15T00:21:15.234Z,66.45
2023-03-15T00:23:42.305Z,66.25
2023-03-15T00:26:09.266Z,66.35
2023-03-15T00:28:36.305Z,66.39
2023-03-15T00:31:14.820Z,66.52
2023-03-15T00:33:42.461Z,66.49
2023-03-15T00:36:10.809Z,66.57
2023-03-15T00:38:39.523Z,66.51
2023-03-15T00:41:17.981Z,66.60
2023-03-15T00:43:45.144Z,66.68
2023-03-15T00:46:12.744Z,66.58
2023-03-15T00:48:40.202Z,66.65
2023-03-15T00:51:13.950Z,66.72
2023-03-15T00:53:43.451Z,66.81
2023-03-15T00:56:13.535Z,66.80
2023-03-15T00:58:40.680Z,66.76
2023-03-15T01:01:10.731Z,66.74
2023-03-15T01:03:38.584Z,66.96
2023-03-15T01:06:10.834Z,66.92
2023-03-15T01:08:38.058Z,66.92
2023-03-15T01:11:08.150Z,67.01
2023-03-15T01:13:36.206Z,66.89
2023-03-15T01:16:04.130Z,66.90
2023-03-15T01:18:31.926Z,66.75
2023-03-15T01:20:59.791Z,66.72
2023-03-15T01:23:26.924Z,66.24
2023-03-15T01:25:53.822Z,65.75
2023-03-15T01:28:21.055Z,65.25
2023-03-15T01:30:52.110Z,65.37
2023-03-15T01:33:20.588Z,65.37
2023-03-15T01:35:48.531Z,65.51
2023-03-15T01:38:15.646Z,65.74
2023-03-15T01:40:45.945Z,65.79
2023-03-15T01:43:22.618Z,65.75
2023-03-15T01:46:00.437Z,65.75
2023-03-15T01:48:48.533Z,65.75
2023-03-15T01:51:39.262Z,65.62
2023-03-15T01:54:27.559Z,65.63
2023-03-15T01:57:10.080Z,65.71
2023-03-15T01:59:44.214Z,65.92
2023-03-15T02:02:15.683Z,65.87
2023-03-15T02:04:49.443Z,65.88
2023-03-15T02:07:21.634Z,65.90
2023-03-15T02:10:01.571Z,66.05
2023-03-15T02:12:32.978Z,65.93
2023-03-15T02:15:04.912Z,66.07
2023-03-15T02:17:43.759Z,66.12
2023-03-15T02:20:19.416Z,66.27
2023-03-15T02:23:02.188Z,66.33
2023-03-15T02:25:51.117Z,66.23
2023-03-15T02:28:20.471Z,66.40
2023-03-15T02:30:48.338Z,66.55
2023-03-15T02:33:29.383Z,66.50
2023-03-15T02:36:06.601Z,66.61
2023-03-15T02:38:33.623Z,66.69
2023-03-15T02:41:01.006Z,66.76
2023-03-15T02:43:32.338Z,66.78
2023-03-15T02:46:00.662Z,66.55
2023-03-15T02:48:28.937Z,66.63
2023-03-15T02:50:56.756Z,66.77
2023-03-15T02:53:23.665Z,66.70
2023-03-15T02:55:52.100Z,66.62
2023-03-15T02:58:19.020Z,66.61
2023-03-15T03:00:45.989Z,66.70
2023-03-15T03:03:12.823Z,66.72
2023-03-15T03:05:39.790Z,66.76
2023-03-15T03:08:06.825Z,66.79
2023-03-15T03:10:34.355Z,66.84
2023-03-15T03:13:01.588Z,66.83
2023-03-15T03:15:33.902Z,66.75
2023-03-15T03:18:00.900Z,66.78
2023-03-15T03:20:27.953Z,66.62
2023-03-15T03:22:56.063Z,66.77
2023-03-15T03:25:27.256Z,66.80
2023-03-15T03:27:57.452Z,66.82
2023-03-15T03:30:26.392Z,66.75
2023-03-15T03:32:53.413Z,66.72
2023-03-15T03:35:20.635Z,66.75
2023-03-15T03:37:47.467Z,66.79
2023-03-15T03:40:20.997Z,66.95
2023-03-15T03:42:48.096Z,66.87
2023-03-15T03:45:17.564Z,66.77
2023-03-15T03:47:45.122Z,66.63
2023-03-15T03:50:11.971Z,66.68
2023-03-15T03:52:39.331Z,66.87
2023-03-15T03:55:09.212Z,66.86
2023-03-15T03:57:36.060Z,66.75
2023-03-15T04:00:05.006Z,66.69
2023-03-15T04:02:44.362Z,66.67
2023-03-15T04:05:14.089Z,66.60
2023-03-15T04:07:41.707Z,66.71
2023-03-15T04:10:14.779Z,66.65
2023-03-15T04:12:44.640Z,66.63
2023-03-15T04:15:12.856Z,66.67
2023-03-15T04:17:40.209Z,66.75
2023-03-15T04:20:13.046Z,66.75
2023-03-15T04:22:49.734Z,66.75
2023-03-15T04:25:35.445Z,66.78
2023-03-15T04:28:30.577Z,66.62
2023-03-15T04:31:15.035Z,66.69
2023-03-15T04:33:57.009Z,66.75
2023-03-15T04:36:46.405Z,66.78
2023-03-15T04:39:27.091Z,66.84
2023-03-15T04:42:13.054Z,66.92
2023-03-15T04:44:54.076Z,66.87
2023-03-15T04:47:51.674Z,66.85
2023-03-15T04:50:44.949Z,66.81
2023-03-15T04:53:30.826Z,66.90
2023-03-15T04:56:13.329Z,66.81
2023-03-15T04:59:06.617Z,66.86
2023-03-15T05:02:00.801Z,66.80
2023-03-15T05:04:52.090Z,66.85
2023-03-15T05:07:36.953Z,66.82
2023-03-15T05:10:33.361Z,66.93
2023-03-15T05:13:38.501Z,66.84
2023-03-15T05:16:21.671Z,66.76
2023-03-15T05:18:48.558Z,66.76
2023-03-15T05:21:34.053Z,66.91
2023-03-15T05:24:24.457Z,66.85
2023-03-15T05:27:14.230Z,66.82
2023-03-15T05:30:06.785Z,66.78
2023-03-15T05:32:45.003Z,66.68
2023-03-15T05:35:26.819Z,66.65
2023-03-15T05:38:15.422Z,66.69
2023-03-15T05:41:18.362Z,66.64
2023-03-15T05:44:08.001Z,66.63
2023-03-15T05:46:53.757Z,66.65
2023-03-15T05:49:37.414Z,66.67
2023-03-15T05:52:42.847Z,66.56
2023-03-15T05:55:28.382Z,66.68
2023-03-15T05:58:17.831Z,66.82
2023-03-15T06:01:21.549Z,66.60
2023-03-15T06:03:58.876Z,66.67
2023-03-15T06:06:26.639Z,66.67
2023-03-15T06:08:53.621Z,66.60
2023-03-15T06:11:20.736Z,66.56
2023-03-15T06:13:48.087Z,66.53
2023-03-15T06:16:24.368Z,66.52
2023-03-15T06:18:52.675Z,66.53
2023-03-15T06:21:21.770Z,66.36
2023-03-15T06:23:48.684Z,66.38
2023-03-15T06:26:15.841Z,66.36
2023-03-15T06:28:43.013Z,66.44
2023-03-15T06:31:11.866Z,66.29
2023-03-15T06:33:46.513Z,66.37
2023-03-15T06:36:14.587Z,66.41
2023-03-15T06:38:42.374Z,66.29
2023-03-15T06:41:09.622Z,66.26
2023-03-15T06:43:36.872Z,66.13
2023-03-15T06:46:03.962Z,66.02
2023-03-15T06:48:31.741Z,66.21
2023-03-15T06:50:58.694Z,66.24
2023-03-15T06:53:25.508Z,66.23
2023-03-15T06:55:52.455Z,66.15
2023-03-15T06:58:19.416Z,66.35
2023-03-15T07:00:46.344Z,66.33
2023-03-15T07:03:13.217Z,66.15
2023-03-15T07:05:40.342Z,66.26
2023-03-15T07:08:07.519Z,66.28
2023-03-15T07:10:34.577Z,66.28
2023-03-15T07:13:01.444Z,66.25
2023-03-15T07:15:29.150Z,66.33
2023-03-15T07:17:56.144Z,66.34
2023-03-15T07:20:23.119Z,66.12
2023-03-15T07:22:50.584Z,66.20
2023-03-15T07:25:23.964Z,66.18
2023-03-15T07:27:51.358Z,66.16
2023-03-15T07:30:19.585Z,66.13
2023-03-15T07:32:47.150Z,66.02
2023-03-15T07:35:14.835Z,65.86
2023-03-15T07:37:44.588Z,65.66
2023-03-15T07:40:13.239Z,65.54
2023-03-15T07:42:40.988Z,65.41
2023-03-15T07:45:09.499Z,65.65
2023-03-15T07:47:36.751Z,66.11
2023-03-15T07:50:05.226Z,66.00
2023-03-15T07:52:32.452Z,65.82
2023-03-15T07:54:59.336Z,65.95
2023-03-15T07:57:28.732Z,65.80
2023-03-15T07:59:56.340Z,65.37
2023-03-15T08:02:23.256Z,64.81
2023-03-15T08:04:51.505Z,64.28
2023-03-15T08:07:18.373Z,63.91
2023-03-15T08:09:45.316Z,63.92
2023-03-15T08:12:12.196Z,63.80
2023-03-15T08:14:39.124Z,64.11
2023-03-15T08:17:06.216Z,64.25
2023-03-15T08:19:33.162Z,64.06
2023-03-15T08:22:00.000Z,63.92
2023-03-15T08:24:27.256Z,63.70
2023-03-15T08:26:54.109Z,63.44
2023-03-15T08:29:21.437Z,63.52
2023-03-15T08:31:48.355Z,63.54
2023-03-15T08:34:16.376Z,63.66
2023-03-15T08:36:43.340Z,63.82
2023-03-15T08:39:10.197Z,63.64
2023-03-15T08:41:37.316Z,63.50
2023-03-15T08:44:04.379Z,63.64
2023-03-15T08:46:31.421Z,64.66
2023-03-15T08:48:58.337Z,64.97
2023-03-15T08:51:26.535Z,64.75
2023-03-15T08:53:53.863Z,64.56
2023-03-15T08:56:21.215Z,64.15
2023-03-15T08:58:48.727Z,63.72
2023-03-15T09:01:16.197Z,63.02
2023-03-15T09:03:45.064Z,62.40
2023-03-15T09:06:12.031Z,62.46
2023-03-15T09:08:38.902Z,63.28
2023-03-15T09:11:06.074Z,62.97
2023-03-15T09:13:33.205Z,62.66
2023-03-15T09:16:00.159Z,61.95
2023-03-15T09:18:27.118Z,61.74
2023-03-15T09:20:54.080Z,62.56
2023-03-15T09:23:20.904Z,62.73
2023-03-15T09:25:47.811Z,62.29
2023-03-15T09:28:14.701Z,62.30
2023-03-15T09:30:42.554Z,61.84
2023-03-15T09:33:09.928Z,61.64
2023-03-15T09:35:37.120Z,60.89
2023-03-15T09:38:04.167Z,60.54
2023-03-15T09:40:40.099Z,60.71
2023-03-15T09:43:06.882Z,61.02
2023-03-15T09:46:03.216Z,61.77
2023-03-15T09:48:54.475Z,60.87
2023-03-15T09:51:21.338Z,60.44
2023-03-15T09:53:57.286Z,60.32
2023-03-15T09:56:28.529Z,60.49
2023-03-15T09:58:59.960Z,59.87
2023-03-15T10:01:36.017Z,59.57
2023-03-15T10:04:32.153Z,59.73
2023-03-15T10:07:04.333Z,60.53
2023-03-15T10:09:34.065Z,60.52
2023-03-15T10:12:22.171Z,60.23
2023-03-15T10:15:17.263Z,60.13
2023-03-15T10:17:59.660Z,60.18
2023-03-15T10:20:34.390Z,60.77
2023-03-15T10:23:22.942Z,61.56
2023-03-15T10:25:51.937Z,60.97
2023-03-15T10:28:30.625Z,60.31
2023-03-15T10:31:25.799Z,60.26
2023-03-15T10:33:59.763Z,60.73
2023-03-15T10:36:26.706Z,60.61
2023-03-15T10:38:53.540Z,60.17
2023-03-15T10:41:38.258Z,59.44
2023-03-15T10:44:17.307Z,58.88
2023-03-15T10:47:02.649Z,58.26
2023-03-15T10:49:49.208Z,57.79
2023-03-15T10:52:46.349Z,57.55
2023-03-15T10:55:22.006Z,57.07
2023-03-15T10:57:55.884Z,57.15
2023-03-15T11:00:36.986Z,56.99
2023-03-15T11:03:17.918Z,57.15
2023-03-15T11:05:48.493Z,57.12
2023-03-15T11:08:25.039Z,57.10
2023-03-15T11:10:57.724Z,57.30
2023-03-15T11:13:30.384Z,58.03
2023-03-15T11:16:25.416Z,57.89
2023-03-15T11:19:01.762Z,58.15
2023-03-15T11:21:33.759Z,58.69
2023-03-15T11:24:06.212Z,58.88
2023-03-15T11:26:39.126Z,58.80
2023-03-15T11:29:29.640Z,58.81
2023-03-15T11:31:58.627Z,58.24
2023-03-15T11:34:56.114Z,57.81
2023-03-15T11:37:28.539Z,57.54
2023-03-15T11:40:11.251Z,57.17
2023-03-15T11:42:49.791Z,56.63
2023-03-15T11:45:30.218Z,56.63
2023-03-15T11:48:25.457Z,56.83
2023-03-15T11:50:57.933Z,56.87
2023-03-15T11:53:32.120Z,57.04
2023-03-15T11:56:23.568Z,57.06
2023-03-15T11:59:06.451Z,57.34
2023-03-15T12:01:35.110Z,57.09
2023-03-15T12:04:32.726Z,57.32
2023-03-15T12:07:06.489Z,56.99
2023-03-15T12:09:33.491Z,56.27
2023-03-15T12:12:03.711Z,56.13
2023-03-15T12:14:36.933Z,56.07
2023-03-15T12:17:27.201Z,56.00
2023-03-15T12:20:12.816Z,55.76
2023-03-15T12:23:06.361Z,56.06
2023-03-15T12:25:48.895Z,56.35
2023-03-15T12:28:33.902Z,56.37
2023-03-15T12:31:03.410Z,56.62
2023-03-15T12:33:32.864Z,56.44
2023-03-15T12:36:03.435Z,56.10
2023-03-15T12:38:41.974Z,55.79
2023-03-15T12:41:30.187Z,55.62
2023-03-15T12:44:19.864Z,56.15
2023-03-15T12:46:46.702Z,56.22
2023-03-15T12:49:16.657Z,56.24
2023-03-15T12:51:44.697Z,56.35
2023-03-15T12:54:16.093Z,56.42
2023-03-15T12:56:54.675Z,56.36
2023-03-15T12:59:48.526Z,56.40
2023-03-15T13:02:42.709Z,56.54
2023-03-15T13:05:10.520Z,56.44
2023-03-15T13:07:51.552Z,56.10
2023-03-15T13:10:26.140Z,55.88
2023-03-15T13:13:05.309Z,55.74
2023-03-15T13:15:43.112Z,55.83
2023-03-15T13:18:18.809Z,55.82
2023-03-15T13:20:55.203Z,55.94
2023-03-15T13:23:27.660Z,56.05
2023-03-15T13:26:33.524Z,56.21
2023-03-15T13:29:15.326Z,56.26
2023-03-15T13:31:44.463Z,56.37
2023-03-15T13:34:19.660Z,56.39
2023-03-15T13:36:58.489Z,56.33
2023-03-15T13:39:34.451Z,56.19
2023-03-15T13:42:24.326Z,56.05
2023-03-15T13:45:06.712Z,55.94
2023-03-15T13:47:36.732Z,55.98
2023-03-15T13:50:04.191Z,56.08
2023-03-15T13:52:31.459Z,56.35
2023-03-15T13:54:59.858Z,56.59
2023-03-15T13:57:27.090Z,56.41
2023-03-15T14:00:00.920Z,56.24
2023-03-15T14:02:43.084Z,56.29
2023-03-15T14:05:27.207Z,56.49
2023-03-15T14:08:04.661Z,56.15
2023-03-15T14:10:39.031Z,55.77
2023-03-15T14:13:24.314Z,55.86
2023-03-15T14:15:57.541Z,55.73
2023-03-15T14:18:30.463Z,55.59
2023-03-15T14:21:00.951Z,55.53
2023-03-15T14:23:30.267Z,55.66
2023-03-15T14:26:23.064Z,55.67
2023-03-15T14:28:55.664Z,55.60
2023-03-15T14:31:26.032Z,55.60
2023-03-15T14:33:57.133Z,55.75
2023-03-15T14:36:35.607Z,55.66
2023-03-15T14:39:02.580Z,55.72
2023-03-15T14:41:33.960Z,55.64
2023-03-15T14:44:03.144Z,55.75
2023-03-15T14:46:33.499Z,55.80
2023-03-15T14:49:01.401Z,55.73
2023-03-15T14:51:29.806Z,55.76
2023-03-15T14:53:59.252Z,55.65
2023-03-15T14:56:26.918Z,55.72
2023-03-15T14:58:56.330Z,55.74
2023-03-15T15:01:27.125Z,55.78
2023-03-15T15:04:02.070Z,55.76
2023-03-15T15:06:32.145Z,55.80
2023-03-15T15:09:01.695Z,55.79
2023-03-15T15:11:28.856Z,55.69
2023-03-15T15:13:56.876Z,55.70
2023-03-15T15:16:24.056Z,55.88
2023-03-15T15:18:51.006Z,55.94
2023-03-15T15:21:20.759Z,55.91
2023-03-15T15:23:57.882Z,56.02
2023-03-15T15:26:28.663Z,55.90
2023-03-15T15:28:56.765Z,55.83
2023-03-15T15:31:26.303Z,55.92
2023-03-15T15:33:56.932Z,55.98
2023-03-15T15:36:27.480Z,56.03
2023-03-15T15:38:54.671Z,55.99
2023-03-15T15:41:26.933Z,55.93
2023-03-15T15:43:54.145Z,55.87
2023-03-15T15:46:21.197Z,55.78
2023-03-15T15:48:48.274Z,55.73
2023-03-15T15:51:29.825Z,55.66
2023-03-15T15:53:59.313Z,55.69
2023-03-15T15:56:40.326Z,55.74
2023-03-15T15:59:13.592Z,55.76
2023-03-15T16:01:56.666Z,55.71
2023-03-15T16:04:26.457Z,55.80
2023-03-15T16:06:59.535Z,55.80
2023-03-15T16:09:30.154Z,55.92
2023-03-15T16:11:57.402Z,55.93
2023-03-15T16:14:24.342Z,55.94
2023-03-15T16:16:51.330Z,56.06
2023-03-15T16:19:18.221Z,56.01
2023-03-15T16:21:48.367Z,56.02
2023-03-15T16:24:28.298Z,56.07
2023-03-15T16:27:03.061Z,56.23
2023-03-15T16:29:39.346Z,56.26
2023-03-15T16:32:19.019Z,56.20
2023-03-15T16:34:49.848Z,56.08
2023-03-15T16:37:21.825Z,56.06
2023-03-15T16:39:52.918Z,56.17
2023-03-15T16:42:20.584Z,56.17
2023-03-15T16:44:47.446Z,56.11
2023-03-15T16:47:14.376Z,56.10
2023-03-15T16:49:41.340Z,56.18
2023-03-15T16:52:10.342Z,56.19
2023-03-15T16:54:41.385Z,56.22
2023-03-15T16:57:22.103Z,56.27
2023-03-15T16:59:50.143Z,56.27
2023-03-15T17:02:25.449Z,56.37
2023-03-15T17:04:55.429Z,56.36
2023-03-15T17:07:28.529Z,56.30
2023-03-15T17:09:55.847Z,56.27
2023-03-15T17:12:26.168Z,56.22
2023-03-15T17:14:56.632Z,56.23
2023-03-15T17:17:25.758Z,56.34
2023-03-15T17:19:52.961Z,56.32
2023-03-15T17:22:20.502Z,56.40
2023-03-15T17:24:48.666Z,56.44
2023-03-15T17:27:39.697Z,56.43
2023-03-15T17:30:31.974Z,56.27
2023-03-15T17:33:00.178Z,56.37
2023-03-15T17:35:37.377Z,56.44
2023-03-15T17:38:06.706Z,56.49
2023-03-15T17:40:36.213Z,56.43
2023-03-15T17:43:04.049Z,56.47
2023-03-15T17:45:33.413Z,56.57
2023-03-15T17:48:01.487Z,56.54
2023-03-15T17:50:31.244Z,56.72
2023-03-15T17:53:01.954Z,56.86
2023-03-15T17:55:31.611Z,56.82
2023-03-15T17:57:58.520Z,56.78
2023-03-15T18:00:25.673Z,56.80
2023-03-15T18:02:55.988Z,56.98
2023-03-15T18:05:28.757Z,56.84
2023-03-15T18:07:59.877Z,56.90
2023-03-15T18:10:34.442Z,57.00
2023-03-15T18:13:01.641Z,57.13
2023-03-15T18:15:28.789Z,57.13
2023-03-15T18:17:55.835Z,57.11
2023-03-15T18:20:24.270Z,57.21
2023-03-15T18:22:51.517Z,57.31
2023-03-15T18:25:24.511Z,57.13
2023-03-15T18:27:52.101Z,57.29
2023-03-15T18:30:21.821Z,57.33
2023-03-15T18:32:50.756Z,57.33
2023-03-15T18:35:24.210Z,57.45
2023-03-15T18:37:51.518Z,57.44
2023-03-15T18:40:20.115Z,57.51
2023-03-15T18:42:47.111Z,57.52
2023-03-15T18:45:23.484Z,57.45
2023-03-15T18:47:50.896Z,57.50
2023-03-15T18:50:19.346Z,57.63
2023-03-15T18:52:46.659Z,57.67
2023-03-15T18:55:16.534Z,57.78
2023-03-15T18:57:46.317Z,57.72
2023-03-15T19:00:15.041Z,57.73
2023-03-15T19:02:44.396Z,57.83
2023-03-15T19:05:13.681Z,57.89
2023-03-15T19:07:41.446Z,57.77
2023-03-15T19:10:13.679Z,57.97
2023-03-15T19:12:45.650Z,58.06
2023-03-15T19:15:17.437Z,58.01
2023-03-15T19:17:46.776Z,58.04
2023-03-15T19:20:15.775Z,58.14
2023-03-15T19:22:43.195Z,58.16
2023-03-15T19:25:13.351Z,58.17
2023-03-15T19:27:41.998Z,58.30
2023-03-15T19:30:14.486Z,58.36
2023-03-15T19:32:43.185Z,58.20
2023-03-15T19:35:10.798Z,58.25
2023-03-15T19:37:38.518Z,58.40
2023-03-15T19:40:09.762Z,58.39
2023-03-15T19:42:36.724Z,58.45
2023-03-15T19:45:05.349Z,58.42
2023-03-15T19:47:32.310Z,58.66
2023-03-15T19:49:59.301Z,58.64
2023-03-15T19:52:28.241Z,58.66
2023-03-15T19:54:57.912Z,58.64
2023-03-15T19:57:24.898Z,58.46
2023-03-15T19:59:51.855Z,58.52
2023-03-15T20:02:19.046Z,58.73
2023-03-15T20:04:46.111Z,58.66
2023-03-15T20:07:12.983Z,58.75
2023-03-15T20:09:41.054Z,58.82
2023-03-15T20:12:12.551Z,58.82
2023-03-15T20:14:39.710Z,58.91
2023-03-15T20:17:07.215Z,58.92
2023-03-15T20:19:34.282Z,58.70
2023-03-15T20:22:01.162Z,58.73
2023-03-15T20:24:27.978Z,58.85
2023-03-15T20:26:54.952Z,58.91
2023-03-15T20:29:24.770Z,58.86
2023-03-15T20:31:53.570Z,58.94
2023-03-15T20:34:21.632Z,59.07
2023-03-15T20:36:48.596Z,58.91
2023-03-15T20:39:18.651Z,58.97
2023-03-15T20:41:45.688Z,59.18
2023-03-15T20:44:12.938Z,59.02
2023-03-15T20:46:42.620Z,59.10
2023-03-15T20:49:10.121Z,58.96
2023-03-15T20:51:37.154Z,59.15
2023-03-15T20:54:04.374Z,59.22
2023-03-15T20:56:31.484Z,59.22
2023-03-15T20:58:58.571Z,59.33
2023-03-15T21:01:25.706Z,59.45
2023-03-15T21:03:56.217Z,59.43
2023-03-15T21:06:24.102Z,59.46
2023-03-15T21:08:51.305Z,59.15
2023-03-15T21:11:18.345Z,59.38
2023-03-15T21:13:45.517Z,59.23
2023-03-15T21:16:13.752Z,59.23
2023-03-15T21:18:45.004Z,59.37
2023-03-15T21:21:12.815Z,59.41
2023-03-15T21:23:39.847Z,59.66
2023-03-15T21:26:09.756Z,59.61
2023-03-15T21:28:39.276Z,59.62
2023-03-15T21:31:07.636Z,59.70
2023-03-15T21:33:34.624Z,59.57
2023-03-15T21:36:02.474Z,59.57
2023-03-15T21:38:34.250Z,59.55
2023-03-15T21:41:06.093Z,59.84
2023-03-15T21:43:33.883Z,59.77
2023-03-15T21:46:06.209Z,59.75
2023-03-15T21:48:34.295Z,59.80
2023-03-15T21:51:02.841Z,59.83
2023-03-15T21:53:33.560Z,59.81
2023-03-15T21:56:02.118Z,60.04
2023-03-15T21:58:29.592Z,60.07
2023-03-15T22:01:04.768Z,59.99
2023-03-15T22:03:34.361Z,60.15
2023-03-15T22:06:02.202Z,60.21
2023-03-15T22:08:29.665Z,60.32
2023-03-15T22:10:59.033Z,60.36
2023-03-15T22:13:26.677Z,60.36
2023-03-15T22:15:53.683Z,60.36
2023-03-15T22:18:20.882Z,60.39
2023-03-15T22:20:48.998Z,60.22
2023-03-15T22:23:16.065Z,60.31
2023-03-15T22:25:43.252Z,60.52
2023-03-15T22:28:10.577Z,60.66
2023-03-15T22:30:37.534Z,60.65
2023-03-15T22:33:04.900Z,60.66
2023-03-15T22:35:34.148Z,60.74
2023-03-15T22:38:10.341Z,60.75
2023-03-15T22:40:39.710Z,60.82
2023-03-15T22:43:07.947Z,60.82
2023-03-15T22:45:35.384Z,60.84
2023-03-15T22:48:02.346Z,60.86
2023-03-15T22:50:29.235Z,60.82
2023-03-15T22:52:56.110Z,60.95
2023-03-15T22:55:23.115Z,61.02
2023-03-15T22:57:50.186Z,61.09
2023-03-15T23:00:21.664Z,61.06
2023-03-15T23:02:48.815Z,61.07
2023-03-15T23:05:16.035Z,61.13
2023-03-15T23:07:43.044Z,61.06
2023-03-15T23:10:11.602Z,61.16
2023-03-15T23:12:38.556Z,61.03
2023-03-15T23:15:06.591Z,61.08
2023-03-15T23:17:33.471Z,61.09
2023-03-15T23:20:00.420Z,61.18
2023-03-15T23:22:27.429Z,61.26
2023-03-15T23:24:58.276Z,61.39
2023-03-15T23:27:26.294Z,61.27
2023-03-15T23:29:54.918Z,61.31
2023-03-15T23:32:23.697Z,61.30
2023-03-15T23:34:51.308Z,61.26
2023-03-15T23:37:18.318Z,61.30
2023-03-15T23:39:45.510Z,61.31
2023-03-15T23:42:14.008Z,61.44
2023-03-15T23:44:40.911Z,61.66
2023-03-15T23:47:08.234Z,61.60
2023-03-15T23:49:35.108Z,61.68
2023-03-15T23:52:06.159Z,61.55
2023-03-15T23:54:41.377Z,61.58
2023-03-15T23:57:10.536Z,61.58
2023-03-15T23:59:38.864Z,61.64
